createdAt,value
2019-03-28T00:03:02.862Z,7.95
2019-03-28T00:08:28.432Z,7.95
2019-03-28T00:13:53.478Z,7.94
2019-03-28T00:19:18.695Z,7.98
2019-03-28T00:24:47.890Z,7.99
2019-03-28T00:30:14.859Z,7.95
2019-03-28T00:35:39.247Z,8.01
2019-03-28T00:41:03.879Z,8.02
2019-03-28T00:46:29.247Z,8.04
2019-03-28T00:51:53.362Z,8.06
2019-03-28T00:57:19.210Z,8.06
2019-03-28T01:02:44.530Z,8.11
2019-03-28T01:08:10.014Z,8.10
2019-03-28T01:13:35.897Z,8.11
2019-03-28T01:19:00.954Z,8.15
2019-03-28T01:24:26.409Z,8.12
2019-03-28T01:29:51.724Z,8.12
2019-03-28T01:35:16.013Z,8.10
2019-03-28T01:40:40.158Z,8.13
2019-03-28T01:46:04.703Z,8.09
2019-03-28T01:51:29.316Z,8.16
2019-03-28T01:56:54.447Z,8.13
2019-03-28T02:02:20.238Z,8.13
2019-03-28T02:07:44.607Z,8.17
2019-03-28T02:13:09.077Z,8.15
2019-03-28T02:18:34.633Z,8.14
2019-03-28T02:24:00.131Z,8.15
2019-03-28T02:29:24.710Z,8.13
2019-03-28T02:34:50.032Z,8.15
2019-03-28T02:40:16.694Z,8.18
2019-03-28T02:45:42.075Z,8.15
2019-03-28T02:51:07.544Z,8.16
2019-03-28T02:56:32.500Z,8.16
2019-03-28T03:01:57.874Z,8.15
2019-03-28T03:07:23.392Z,8.11
2019-03-28T03:12:48.351Z,8.14
2019-03-28T03:18:12.673Z,8.16
2019-03-28T03:23:37.979Z,8.12
2019-03-28T03:29:02.218Z,8.10
2019-03-28T03:34:27.219Z,8.15
2019-03-28T03:39:52.389Z,8.14
2019-03-28T03:45:17.672Z,8.13
2019-03-28T03:50:41.986Z,8.14
2019-03-28T03:56:06.240Z,8.17
2019-03-28T04:01:30.881Z,8.16
2019-03-28T04:06:56.129Z,8.15
2019-03-28T04:12:21.055Z,8.15
2019-03-28T04:17:47.732Z,8.12
2019-03-28T04:23:12.110Z,8.13
2019-03-28T04:28:36.620Z,8.16
2019-03-28T04:34:07.034Z,8.13
2019-03-28T04:39:27.586Z,8.13
2019-03-28T04:44:53.089Z,8.12
2019-03-28T04:50:18.300Z,8.13
2019-03-28T04:55:43.306Z,8.17
2019-03-28T05:01:07.914Z,8.16
2019-03-28T05:06:32.272Z,8.20
2019-03-28T05:11:57.052Z,8.20
2019-03-28T05:17:22.452Z,8.22
2019-03-28T05:22:48.485Z,8.18
2019-03-28T05:28:13.809Z,8.19
2019-03-28T05:33:39.421Z,8.19
2019-03-28T05:39:04.739Z,8.27
2019-03-28T05:44:28.908Z,8.25
2019-03-28T05:49:53.258Z,8.20
2019-03-28T05:55:18.742Z,8.27
2019-03-28T06:00:43.092Z,8.25
2019-03-28T06:06:07.998Z,8.22
2019-03-28T06:11:34.333Z,8.26
2019-03-28T06:16:59.625Z,8.30
2019-03-28T06:22:23.970Z,8.31
2019-03-28T06:27:49.399Z,8.38
2019-03-28T06:33:15.009Z,8.30
2019-03-28T06:38:40.038Z,8.43
2019-03-28T06:44:05.549Z,8.52
2019-03-28T06:49:29.771Z,8.62
2019-03-28T06:54:54.980Z,8.60
2019-03-28T07:00:20.512Z,8.61
2019-03-28T07:05:45.309Z,8.57
2019-03-28T07:11:10.147Z,8.56
2019-03-28T07:16:35.722Z,8.52
2019-03-28T07:22:00.184Z,8.67
2019-03-28T07:27:25.071Z,8.66
2019-03-28T07:32:50.470Z,8.88
2019-03-28T07:38:15.653Z,9.04
2019-03-28T07:43:40.853Z,9.00
2019-03-28T07:49:05.807Z,8.90
2019-03-28T07:54:30.262Z,9.00
2019-03-28T08:00:04.004Z,9.21
2019-03-28T08:05:21.791Z,9.27
2019-03-28T08:10:47.135Z,9.30
2019-03-28T08:16:11.553Z,9.35
2019-03-28T08:21:36.005Z,9.36
2019-03-28T08:27:00.544Z,9.53
2019-03-28T08:32:26.940Z,9.79
2019-03-28T08:37:52.368Z,10.08
2019-03-28T08:43:17.559Z,9.97
2019-03-28T08:48:42.183Z,10.05
2019-03-28T08:54:06.511Z,10.01
2019-03-28T08:59:30.939Z,10.02
2019-03-28T09:04:56.254Z,9.82
2019-03-28T09:10:21.662Z,9.76
2019-03-28T09:15:46.015Z,9.84
2019-03-28T09:21:11.075Z,9.98
2019-03-28T09:26:36.291Z,10.05
2019-03-28T09:32:01.545Z,10.23
2019-03-28T09:37:26.740Z,10.33
2019-03-28T09:42:52.009Z,10.58
2019-03-28T09:48:16.660Z,10.52
2019-03-28T09:53:41.799Z,10.59
2019-03-28T09:59:07.240Z,10.53
2019-03-28T10:04:32.355Z,10.51
2019-03-28T10:09:57.651Z,10.71
2019-03-28T10:15:21.968Z,10.62
2019-03-28T10:20:47.609Z,10.57
2019-03-28T10:26:12.594Z,10.58
2019-03-28T10:31:37.224Z,10.48
2019-03-28T10:37:01.582Z,10.48
2019-03-28T10:42:26.956Z,10.48
2019-03-28T10:47:51.325Z,10.39
2019-03-28T10:53:16.281Z,10.55
2019-03-28T10:58:41.495Z,10.64
2019-03-28T11:04:05.792Z,10.55
2019-03-28T11:09:31.003Z,10.61
2019-03-28T11:14:55.224Z,10.27
2019-03-28T11:20:20.438Z,10.44
2019-03-28T11:25:45.629Z,10.67
2019-03-28T11:31:09.801Z,10.79
2019-03-28T11:36:34.918Z,10.54
2019-03-28T11:42:00.520Z,10.61
2019-03-28T11:47:24.733Z,10.56
2019-03-28T11:52:49.114Z,10.37
2019-03-28T11:58:13.475Z,10.50
2019-03-28T12:03:39.230Z,10.55
2019-03-28T12:09:05.494Z,10.63
2019-03-28T12:14:30.844Z,10.82
2019-03-28T12:19:57.128Z,10.85
2019-03-28T12:25:22.995Z,11.14
2019-03-28T12:30:47.335Z,11.33
2019-03-28T12:36:11.574Z,11.35
2019-03-28T12:41:36.290Z,11.08
2019-03-28T12:47:00.641Z,10.86
2019-03-28T12:52:24.947Z,10.59
2019-03-28T12:57:49.198Z,10.43
2019-03-28T13:03:14.110Z,10.49
2019-03-28T13:08:39.783Z,10.59
2019-03-28T13:14:04.677Z,10.57
2019-03-28T13:19:29.697Z,10.60
2019-03-28T13:24:54.968Z,10.58
2019-03-28T13:30:20.942Z,10.58
2019-03-28T13:35:45.820Z,10.49
2019-03-28T13:41:11.040Z,10.49
2019-03-28T13:46:35.937Z,10.46
2019-03-28T13:52:01.473Z,10.63
2019-03-28T13:57:25.979Z,10.73
2019-03-28T14:02:58.598Z,10.73
2019-03-28T14:08:17.218Z,10.69
2019-03-28T14:13:42.321Z,11.00
2019-03-28T14:19:06.930Z,11.00
2019-03-28T14:24:32.240Z,10.95
2019-03-28T14:29:56.860Z,10.89
2019-03-28T14:35:21.127Z,10.73
2019-03-28T14:40:45.679Z,10.76
2019-03-28T14:46:10.665Z,10.71
2019-03-28T14:51:38.110Z,10.70
2019-03-28T14:57:03.941Z,10.61
2019-03-28T15:02:28.163Z,10.68
2019-03-28T15:07:53.469Z,10.76
2019-03-28T15:13:17.656Z,10.95
2019-03-28T15:18:43.178Z,10.94
2019-03-28T15:24:08.667Z,11.00
2019-03-28T15:29:32.805Z,10.89
2019-03-28T15:34:57.441Z,10.92
2019-03-28T15:40:22.423Z,10.96
2019-03-28T15:45:47.398Z,10.91
2019-03-28T15:51:11.857Z,10.90
2019-03-28T15:56:37.464Z,10.76
2019-03-28T16:02:02.004Z,10.59
2019-03-28T16:07:29.306Z,10.47
2019-03-28T16:12:52.912Z,10.23
2019-03-28T16:18:18.720Z,10.01
2019-03-28T16:23:44.127Z,9.83
2019-03-28T16:29:09.301Z,9.76
2019-03-28T16:34:34.483Z,9.75
2019-03-28T16:39:59.730Z,9.67
2019-03-28T16:45:25.005Z,9.70
2019-03-28T16:50:50.543Z,9.74
2019-03-28T16:56:17.084Z,9.77
2019-03-28T17:01:42.584Z,9.74
2019-03-28T17:07:08.041Z,9.79
2019-03-28T17:12:33.419Z,9.75
2019-03-28T17:17:58.350Z,9.65
2019-03-28T17:23:23.900Z,9.62
2019-03-28T17:28:48.787Z,9.56
2019-03-28T17:34:14.286Z,9.54
2019-03-28T17:39:39.457Z,9.50
2019-03-28T17:45:03.887Z,9.49
2019-03-28T17:50:29.358Z,9.47
2019-03-28T17:55:54.007Z,9.46
2019-03-28T18:01:23.395Z,9.46
2019-03-28T18:06:47.957Z,9.44
2019-03-28T18:12:13.852Z,9.45
2019-03-28T18:17:39.294Z,9.45
2019-03-28T18:23:03.493Z,9.45
2019-03-28T18:28:31.512Z,9.45
2019-03-28T18:33:55.296Z,9.41
2019-03-28T18:39:20.509Z,9.41
2019-03-28T18:44:44.769Z,9.42
2019-03-28T18:50:10.546Z,9.41
2019-03-28T18:55:36.404Z,9.35
2019-03-28T19:01:01.697Z,9.28
2019-03-28T19:06:26.985Z,9.27
2019-03-28T19:11:52.050Z,9.27
2019-03-28T19:17:16.315Z,9.30
2019-03-28T19:22:40.758Z,9.31
2019-03-28T19:28:07.882Z,9.31
2019-03-28T19:33:33.008Z,9.27
2019-03-28T19:38:58.488Z,9.20
2019-03-28T19:44:25.878Z,9.19
2019-03-28T19:49:50.363Z,9.12
2019-03-28T19:55:20.397Z,9.12
2019-03-28T20:00:44.656Z,9.14
2019-03-28T20:06:21.650Z,9.10
2019-03-28T20:11:36.854Z,9.09
2019-03-28T20:17:01.957Z,9.04
2019-03-28T20:22:26.398Z,9.04
2019-03-28T20:27:51.503Z,9.07
2019-03-28T20:33:16.727Z,9.07
2019-03-28T20:38:41.604Z,9.01
2019-03-28T20:44:07.477Z,8.97
2019-03-28T20:49:32.713Z,8.98
2019-03-28T20:54:57.605Z,8.96
2019-03-28T21:00:39.434Z,8.96
2019-03-28T21:06:14.689Z,8.92
2019-03-28T21:11:30.076Z,8.92
2019-03-28T21:16:58.112Z,8.92
2019-03-28T21:22:22.342Z,8.89
2019-03-28T21:27:47.573Z,8.89
2019-03-28T21:33:14.877Z,8.85
2019-03-28T21:38:38.145Z,8.85
2019-03-28T21:44:02.427Z,8.84
2019-03-28T21:49:26.510Z,8.86
2019-03-28T21:54:50.793Z,8.85
2019-03-28T22:00:16.934Z,8.88
2019-03-28T22:05:42.448Z,8.87
2019-03-28T22:11:07.828Z,8.85
2019-03-28T22:16:33.833Z,8.83
2019-03-28T22:21:58.291Z,8.75
2019-03-28T22:27:23.301Z,8.68
2019-03-28T22:32:47.458Z,8.71
2019-03-28T22:38:12.942Z,8.71
2019-03-28T22:43:38.856Z,8.71
2019-03-28T22:49:04.384Z,8.76
2019-03-28T22:54:29.641Z,8.73
2019-03-28T22:59:54.669Z,8.74
2019-03-28T23:05:20.182Z,8.81
2019-03-28T23:10:45.514Z,8.81
2019-03-28T23:16:10.485Z,8.81
2019-03-28T23:21:34.862Z,8.76
2019-03-28T23:27:01.001Z,8.79
2019-03-28T23:32:25.539Z,8.81
2019-03-28T23:37:51.070Z,8.83
2019-03-28T23:43:16.334Z,8.81
2019-03-28T23:48:41.746Z,8.75
2019-03-28T23:54:06.203Z,8.69
2019-03-28T23:59:31.375Z,8.65
